createdAt,value
2022-12-15T00:01:26.528Z,3.38
2022-12-15T00:07:06.587Z,3.63
2022-12-15T00:12:46.589Z,4.28
2022-12-15T00:18:26.696Z,4.05
2022-12-15T00:24:06.674Z,4.53
2022-12-15T00:29:46.592Z,4.13
2022-12-15T00:35:27.143Z,4.03
2022-12-15T00:40:51.376Z,4.63
2022-12-15T00:46:32.434Z,4.38
2022-12-15T00:52:12.436Z,4.25
2022-12-15T00:57:52.756Z,4.50
2022-12-15T01:03:39.115Z,4.50
2022-12-15T01:09:20.215Z,4.13
2022-12-15T01:15:00.718Z,4.70
2022-12-15T01:20:22.455Z,4.55
2022-12-15T01:25:44.120Z,5.53
2022-12-15T01:31:12.313Z,4.10
2022-12-15T01:36:34.072Z,4.47
2022-12-15T01:41:55.856Z,3.75
2022-12-15T01:47:18.942Z,3.80
2022-12-15T01:52:40.782Z,6.40
2022-12-15T01:58:08.470Z,3.80
2022-12-15T02:03:32.043Z,4.53
2022-12-15T02:08:57.281Z,5.38
2022-12-15T02:14:44.741Z,3.53
2022-12-15T02:20:30.902Z,3.88
2022-12-15T02:26:29.973Z,5.90
2022-12-15T02:31:59.409Z,4.63
2022-12-15T02:37:27.500Z,7.00
2022-12-15T02:42:54.286Z,5.55
2022-12-15T02:48:18.891Z,4.18
2022-12-15T02:53:58.657Z,6.70
2022-12-15T02:59:32.505Z,5.15
2022-12-15T03:04:55.294Z,4.30
2022-12-15T03:10:18.016Z,5.40
2022-12-15T03:15:40.001Z,4.20
2022-12-15T03:21:01.785Z,5.43
2022-12-15T03:26:23.528Z,3.90
2022-12-15T03:31:45.327Z,5.53
2022-12-15T03:37:07.023Z,3.58
2022-12-15T03:42:47.015Z,4.82
2022-12-15T03:48:08.728Z,3.80
2022-12-15T03:53:30.768Z,5.20
2022-12-15T03:58:52.754Z,4.40
2022-12-15T04:04:15.387Z,6.47
2022-12-15T04:09:37.583Z,5.60
2022-12-15T04:14:59.301Z,3.92
2022-12-15T04:20:22.001Z,5.07
2022-12-15T04:26:02.463Z,5.63
2022-12-15T04:31:46.575Z,5.00
2022-12-15T04:37:31.112Z,4.72
2022-12-15T04:43:11.475Z,4.85
2022-12-15T04:48:51.602Z,4.15
2022-12-15T04:54:32.182Z,6.10
2022-12-15T05:00:12.176Z,5.72
2022-12-15T05:05:52.263Z,4.78
2022-12-15T05:11:32.405Z,5.20
2022-12-15T05:17:12.715Z,4.65
2022-12-15T05:22:53.296Z,5.25
2022-12-15T05:28:34.240Z,5.03
2022-12-15T05:34:01.066Z,3.92
2022-12-15T05:39:27.209Z,4.80
2022-12-15T05:44:49.320Z,4.63
2022-12-15T05:50:11.564Z,4.57
2022-12-15T05:55:33.229Z,4.30
2022-12-15T06:00:54.955Z,4.68
2022-12-15T06:06:16.703Z,4.90
2022-12-15T06:11:38.440Z,3.78
2022-12-15T06:17:00.267Z,5.60
2022-12-15T06:22:22.033Z,3.90
2022-12-15T06:27:43.663Z,4.85
2022-12-15T06:33:05.381Z,3.80
2022-12-15T06:38:29.405Z,5.30
2022-12-15T06:43:52.648Z,6.63
2022-12-15T06:49:14.804Z,5.30
2022-12-15T06:54:36.469Z,4.15
2022-12-15T06:59:58.108Z,6.63
2022-12-15T07:05:21.674Z,4.15
2022-12-15T07:10:44.638Z,4.32
2022-12-15T07:16:07.779Z,5.50
2022-12-15T07:21:29.577Z,5.47
2022-12-15T07:26:51.299Z,3.53
2022-12-15T07:32:13.057Z,3.70
2022-12-15T07:37:35.311Z,4.95
2022-12-15T07:42:57.520Z,8.55
2022-12-15T07:48:19.824Z,4.90
2022-12-15T07:53:41.679Z,6.80
2022-12-15T07:59:03.909Z,5.32
2022-12-15T08:04:25.578Z,4.07
2022-12-15T08:09:48.555Z,9.52
2022-12-15T08:15:11.903Z,13.70
2022-12-15T08:20:34.042Z,11.00
2022-12-15T08:26:01.587Z,10.55
2022-12-15T08:31:24.244Z,24.63
2022-12-15T08:36:45.955Z,10.32
2022-12-15T08:42:07.629Z,19.25
2022-12-15T08:47:29.371Z,9.80
2022-12-15T08:53:21.386Z,10.18
2022-12-15T08:58:33.576Z,20.52
2022-12-15T09:03:56.661Z,10.43
2022-12-15T09:09:18.712Z,10.65
2022-12-15T09:14:40.434Z,14.10
2022-12-15T09:20:02.216Z,6.20
2022-12-15T09:25:23.906Z,26.23
2022-12-15T09:30:45.646Z,31.88
2022-12-15T09:36:08.917Z,28.55
2022-12-15T09:41:33.811Z,26.65
2022-12-15T09:47:21.895Z,24.57
2022-12-15T09:52:50.375Z,21.73
2022-12-15T09:58:33.577Z,18.80
2022-12-15T10:04:20.282Z,17.95
2022-12-15T10:09:42.167Z,19.77
2022-12-15T10:15:18.918Z,18.98
2022-12-15T10:20:40.869Z,15.25
2022-12-15T10:26:16.261Z,13.27
2022-12-15T10:31:43.671Z,13.70
2022-12-15T10:37:06.129Z,22.20
2022-12-15T10:42:27.972Z,19.10
2022-12-15T10:48:04.127Z,16.80
2022-12-15T10:53:45.408Z,15.82
2022-12-15T11:04:59.908Z,15.93
2022-12-15T11:10:27.928Z,16.05
2022-12-15T11:15:51.863Z,15.13
2022-12-15T11:21:27.636Z,14.35
2022-12-15T11:26:53.297Z,16.98
2022-12-15T11:32:23.111Z,20.50
2022-12-15T11:37:48.509Z,17.63
2022-12-15T11:43:45.469Z,16.77
2022-12-15T11:49:45.750Z,17.40
2022-12-15T11:55:18.152Z,15.05
2022-12-15T12:00:48.988Z,19.73
2022-12-15T12:06:16.640Z,19.05
2022-12-15T12:12:12.177Z,25.25
2022-12-15T12:17:39.240Z,22.65
2022-12-15T12:23:05.998Z,32.53
2022-12-15T12:28:46.828Z,28.17
2022-12-15T12:34:17.958Z,32.70
2022-12-15T12:39:40.333Z,31.80
2022-12-15T12:45:02.905Z,26.10
2022-12-15T12:50:27.506Z,34.72
2022-12-15T12:55:49.871Z,28.33
2022-12-15T13:01:13.276Z,42.83
2022-12-15T13:06:35.101Z,21.45
2022-12-15T13:12:01.090Z,19.65
2022-12-15T13:17:39.444Z,23.38
2022-12-15T13:23:19.785Z,27.75
2022-12-15T13:28:45.541Z,20.80
2022-12-15T13:34:15.112Z,19.48
2022-12-15T13:39:53.147Z,27.60
2022-12-15T13:45:29.265Z,25.63
2022-12-15T13:56:51.621Z,23.88
2022-12-15T14:02:30.535Z,21.33
2022-12-15T14:07:56.352Z,22.80
2022-12-15T14:13:34.834Z,19.27
2022-12-15T14:19:10.291Z,23.35
2022-12-15T14:24:41.335Z,20.33
2022-12-15T14:30:15.075Z,19.75
2022-12-15T14:35:51.506Z,24.45
2022-12-15T14:41:22.087Z,20.80
2022-12-15T14:46:49.920Z,21.48
2022-12-15T14:52:32.939Z,24.77
2022-12-15T14:57:54.681Z,19.85
2022-12-15T15:03:19.956Z,18.40
2022-12-15T15:08:46.452Z,23.23
2022-12-15T15:14:20.808Z,20.00
2022-12-15T15:19:56.714Z,28.10
2022-12-15T15:25:39.295Z,29.38
2022-12-15T15:31:10.948Z,24.20
2022-12-15T15:36:36.370Z,27.33
2022-12-15T15:42:05.372Z,18.15
2022-12-15T15:47:27.603Z,15.70
2022-12-15T15:52:49.326Z,22.73
2022-12-15T15:58:12.507Z,24.35
2022-12-15T16:03:35.529Z,18.55
2022-12-15T16:08:57.369Z,22.77
2022-12-15T16:14:19.118Z,19.20
2022-12-15T16:19:40.799Z,20.92
2022-12-15T16:25:03.060Z,16.10
2022-12-15T16:30:26.492Z,25.10
2022-12-15T16:35:49.696Z,21.95
2022-12-15T16:41:16.171Z,24.42
2022-12-15T16:46:37.973Z,16.92
2022-12-15T16:51:59.730Z,17.88
2022-12-15T16:57:21.579Z,20.65
2022-12-15T17:02:43.560Z,26.25
2022-12-15T17:08:07.006Z,26.45
2022-12-15T17:13:43.572Z,24.55
2022-12-15T17:19:07.165Z,19.70
2022-12-15T17:24:28.894Z,20.50
2022-12-15T17:29:50.657Z,24.70
2022-12-15T17:35:13.010Z,24.52
2022-12-15T17:40:34.701Z,26.05
2022-12-15T17:45:56.438Z,17.85
2022-12-15T17:51:20.312Z,24.52
2022-12-15T17:56:43.868Z,19.27
2022-12-15T18:02:06.137Z,21.33
2022-12-15T18:07:28.033Z,23.52
2022-12-15T18:12:49.912Z,27.35
2022-12-15T18:18:12.211Z,35.20
2022-12-15T18:23:34.845Z,34.47
2022-12-15T18:28:56.882Z,39.80
2022-12-15T18:34:21.531Z,31.63
2022-12-15T18:39:43.522Z,29.53
2022-12-15T18:45:15.319Z,31.35
2022-12-15T18:50:37.021Z,24.10
2022-12-15T18:56:04.321Z,23.70
2022-12-15T19:01:26.201Z,33.65
2022-12-15T19:06:48.164Z,35.58
2022-12-15T19:12:18.458Z,55.20
2022-12-15T19:17:58.577Z,47.13
2022-12-15T19:23:21.247Z,47.10
2022-12-15T19:28:43.013Z,58.85
2022-12-15T19:34:04.721Z,45.97
2022-12-15T19:39:26.789Z,37.22
2022-12-15T19:44:48.616Z,48.22
2022-12-15T19:50:25.185Z,56.60
2022-12-15T19:55:47.293Z,52.85
2022-12-15T20:01:12.770Z,44.03
2022-12-15T20:11:56.120Z,44.78
2022-12-15T20:17:18.110Z,31.35
2022-12-15T20:22:40.098Z,43.88
2022-12-15T20:28:02.101Z,46.70
2022-12-15T20:33:24.776Z,37.38
2022-12-15T20:38:47.906Z,39.25
2022-12-15T20:44:13.130Z,22.50
2022-12-15T20:49:35.172Z,37.22
2022-12-15T20:54:56.815Z,32.45
2022-12-15T21:00:18.741Z,38.55
2022-12-15T21:05:40.418Z,35.28
2022-12-15T21:11:24.606Z,34.92
2022-12-15T21:16:46.561Z,26.77
2022-12-15T21:22:24.648Z,24.90
2022-12-15T21:27:46.522Z,16.42
2022-12-15T21:33:08.635Z,17.92
2022-12-15T21:38:40.319Z,20.92
2022-12-15T21:44:02.007Z,15.75
2022-12-15T21:49:24.509Z,14.68
2022-12-15T21:54:46.238Z,12.75
2022-12-15T22:00:12.557Z,16.20
2022-12-15T22:05:34.343Z,15.48
2022-12-15T22:10:56.182Z,11.13
2022-12-15T22:16:18.157Z,11.23
2022-12-15T22:21:41.818Z,11.52
2022-12-15T22:27:03.855Z,11.57
2022-12-15T22:32:25.695Z,12.13
2022-12-15T22:37:49.710Z,10.40
2022-12-15T22:43:30.661Z,8.23
2022-12-15T22:48:54.709Z,13.20
2022-12-15T22:54:21.888Z,8.90
2022-12-15T22:59:50.363Z,8.05
2022-12-15T23:05:17.250Z,6.75
2022-12-15T23:10:57.851Z,7.28
2022-12-15T23:16:20.030Z,7.25
2022-12-15T23:21:41.796Z,6.97
2022-12-15T23:27:03.594Z,6.05
2022-12-15T23:32:25.532Z,8.93
2022-12-15T23:37:47.211Z,7.22
2022-12-15T23:43:08.912Z,6.38
2022-12-15T23:48:33.926Z,5.65
2022-12-15T23:53:55.668Z,6.53
2022-12-15T23:59:17.653Z,6.72
